Terminal Aerodrome Forecast
Issued by NWS Grand Forks, ND

Home | Current Version | Previous Version | Text Only | Print | Product List | Glossary On
Versions: 1 2 3 4 5 6 7 8 9 10 11 12 13 14 15 16
000
FTUS43 KFGF 220520
TAFGFK
TAF
KGFK 220520Z 2206/2306 00000KT 1/4SM FG OVC003
     FM221500 28004KT 3SM BR OVC008
     FM221900 28005KT P6SM OVC008
     FM230200 27007KT 6SM BR OVC010=

USA.gov is the U.S. government's official web portal to all federal, state and local government web resources and services.